createdAt,value
2019-05-20T00:00:31.877Z,87.85
2019-05-20T00:03:00.658Z,87.96
2019-05-20T00:05:30.046Z,88.25
2019-05-20T00:07:59.274Z,88.50
2019-05-20T00:10:28.741Z,88.27
2019-05-20T00:12:58.168Z,87.39
2019-05-20T00:15:27.271Z,88.18
2019-05-20T00:17:56.051Z,87.67
2019-05-20T00:20:24.941Z,88.30
2019-05-20T00:22:53.933Z,88.52
2019-05-20T00:25:22.826Z,87.84
2019-05-20T00:27:54.479Z,88.10
2019-05-20T00:30:23.376Z,88.33
2019-05-20T00:32:52.263Z,88.44
2019-05-20T00:35:21.152Z,88.44
2019-05-20T00:37:50.045Z,88.15
2019-05-20T00:40:18.936Z,88.15
2019-05-20T00:42:47.829Z,88.33
2019-05-20T00:45:16.815Z,88.61
2019-05-20T00:47:45.613Z,88.57
2019-05-20T00:50:14.707Z,88.70
2019-05-20T00:52:43.712Z,88.66
2019-05-20T00:55:27.030Z,88.73
2019-05-20T00:57:55.926Z,88.78
2019-05-20T01:00:25.328Z,88.58
2019-05-20T01:02:57.058Z,88.59
2019-05-20T01:05:25.051Z,88.51
2019-05-20T01:07:53.943Z,88.50
2019-05-20T01:10:22.836Z,88.28
2019-05-20T01:12:51.826Z,88.34
2019-05-20T01:15:21.013Z,89.02
2019-05-20T01:17:49.817Z,87.94
2019-05-20T01:20:19.116Z,88.37
2019-05-20T01:22:48.110Z,87.69
2019-05-20T01:25:17.001Z,88.43
2019-05-20T01:27:45.894Z,87.95
2019-05-20T01:30:15.317Z,87.97
2019-05-20T01:32:44.186Z,88.09
2019-05-20T01:35:13.924Z,88.04
2019-05-20T01:37:42.786Z,87.75
2019-05-20T01:40:12.717Z,86.98
2019-05-20T01:42:41.594Z,87.49
2019-05-20T01:45:11.617Z,87.61
2019-05-20T01:47:40.503Z,87.23
2019-05-20T01:50:10.119Z,87.78
2019-05-20T01:52:39.007Z,88.21
2019-05-20T01:55:09.101Z,88.09
2019-05-20T01:57:38.015Z,87.97
2019-05-20T02:00:08.438Z,88.04
2019-05-20T02:02:37.332Z,87.95
2019-05-20T02:05:09.885Z,87.60
2019-05-20T02:07:38.727Z,87.81
2019-05-20T02:10:08.768Z,87.40
2019-05-20T02:12:37.709Z,87.69
2019-05-20T02:15:10.080Z,88.51
2019-05-20T02:17:38.979Z,89.02
2019-05-20T02:20:09.091Z,89.88
2019-05-20T02:22:37.985Z,89.26
2019-05-20T02:25:07.184Z,89.47
2019-05-20T02:27:36.074Z,89.19
2019-05-20T02:30:07.649Z,88.89
2019-05-20T02:32:36.621Z,88.62
2019-05-20T02:35:08.711Z,88.73
2019-05-20T02:37:37.691Z,89.19
2019-05-20T02:40:08.377Z,88.90
2019-05-20T02:42:37.731Z,88.49
2019-05-20T02:45:08.709Z,88.92
2019-05-20T02:47:37.552Z,89.04
2019-05-20T02:50:07.130Z,89.22
2019-05-20T02:52:36.046Z,88.86
2019-05-20T02:55:06.863Z,89.14
2019-05-20T02:57:35.695Z,89.00
2019-05-20T03:00:07.158Z,88.86
2019-05-20T03:02:36.021Z,88.92
2019-05-20T03:05:06.702Z,88.72
2019-05-20T03:07:35.559Z,88.66
2019-05-20T03:10:05.826Z,88.71
2019-05-20T03:12:34.761Z,89.09
2019-05-20T03:15:04.156Z,91.16
2019-05-20T03:17:33.046Z,89.63
2019-05-20T03:20:01.934Z,89.05
2019-05-20T03:22:30.832Z,88.73
2019-05-20T03:24:59.724Z,89.99
2019-05-20T03:27:28.610Z,89.22
2019-05-20T03:29:57.603Z,88.80
2019-05-20T03:32:26.498Z,88.32
2019-05-20T03:34:59.856Z,88.14
2019-05-20T03:37:26.020Z,88.24
2019-05-20T03:39:54.916Z,88.70
2019-05-20T03:42:23.801Z,90.43
2019-05-20T03:44:52.795Z,90.00
2019-05-20T03:47:21.685Z,89.64
2019-05-20T03:49:50.576Z,88.36
2019-05-20T03:52:19.466Z,88.84
2019-05-20T03:54:48.357Z,89.59
2019-05-20T03:57:17.257Z,88.83
2019-05-20T03:59:46.142Z,88.85
2019-05-20T04:02:15.031Z,88.91
2019-05-20T04:05:00.756Z,88.07
2019-05-20T04:07:15.077Z,88.34
2019-05-20T04:09:43.959Z,88.77
2019-05-20T04:12:12.848Z,89.70
2019-05-20T04:14:41.745Z,89.70
2019-05-20T04:17:11.247Z,89.26
2019-05-20T04:19:40.139Z,89.24
2019-05-20T04:22:10.061Z,88.56
2019-05-20T04:24:38.953Z,88.29
2019-05-20T04:27:08.039Z,88.74
2019-05-20T04:29:37.254Z,88.43
2019-05-20T04:32:06.128Z,88.28
2019-05-20T04:34:35.025Z,88.26
2019-05-20T04:37:03.922Z,88.06
2019-05-20T04:39:32.803Z,88.40
2019-05-20T04:42:05.981Z,89.02
2019-05-20T04:44:33.346Z,88.72
2019-05-20T04:47:02.239Z,88.46
2019-05-20T04:49:31.135Z,88.25
2019-05-20T04:52:00.024Z,89.30
2019-05-20T04:54:28.917Z,89.30
2019-05-20T04:56:57.806Z,88.76
2019-05-20T04:59:26.697Z,88.10
2019-05-20T05:01:55.586Z,87.89
2019-05-20T05:04:24.478Z,87.68
2019-05-20T05:06:53.372Z,87.74
2019-05-20T05:09:22.260Z,87.41
2019-05-20T05:11:51.199Z,87.03
2019-05-20T05:14:20.269Z,87.09
2019-05-20T05:16:49.139Z,87.53
2019-05-20T05:19:18.029Z,87.35
2019-05-20T05:21:46.922Z,87.47
2019-05-20T05:24:15.929Z,86.74
2019-05-20T05:26:47.731Z,87.15
2019-05-20T05:29:15.447Z,87.12
2019-05-20T05:31:44.330Z,87.59
2019-05-20T05:34:13.127Z,87.84
2019-05-20T05:36:42.008Z,87.59
2019-05-20T05:39:11.902Z,87.37
2019-05-20T05:41:40.741Z,86.52
2019-05-20T05:44:11.070Z,86.64
2019-05-20T05:46:39.928Z,86.79
2019-05-20T05:49:09.262Z,86.83
2019-05-20T05:51:38.429Z,86.75
2019-05-20T05:54:08.246Z,86.50
2019-05-20T05:56:37.132Z,86.33
2019-05-20T05:59:06.024Z,86.39
2019-05-20T06:01:34.918Z,86.52
2019-05-20T06:04:03.907Z,85.89
2019-05-20T06:06:32.799Z,85.89
2019-05-20T06:09:01.692Z,87.12
2019-05-20T06:11:30.583Z,86.51
2019-05-20T06:13:59.474Z,86.68
2019-05-20T06:16:36.625Z,87.54
2019-05-20T06:18:58.904Z,87.15
2019-05-20T06:21:27.786Z,88.05
2019-05-20T06:23:56.690Z,87.90
2019-05-20T06:26:25.569Z,87.57
2019-05-20T06:28:54.459Z,88.07
2019-05-20T06:31:23.351Z,87.98
2019-05-20T06:33:52.346Z,87.69
2019-05-20T06:36:26.868Z,87.44
2019-05-20T06:38:53.765Z,87.51
2019-05-20T06:41:24.145Z,88.20
2019-05-20T06:43:53.028Z,88.27
2019-05-20T06:46:21.974Z,88.87
2019-05-20T06:48:50.913Z,87.74
2019-05-20T06:51:19.906Z,89.52
2019-05-20T06:53:48.803Z,88.00
2019-05-20T06:56:17.689Z,88.36
2019-05-20T06:58:46.577Z,88.78
2019-05-20T07:01:15.470Z,87.40
2019-05-20T07:03:44.367Z,88.53
2019-05-20T07:06:13.252Z,86.96
2019-05-20T07:08:42.144Z,87.19
2019-05-20T07:11:11.242Z,88.34
2019-05-20T07:13:40.137Z,87.79
2019-05-20T07:16:09.841Z,86.86
2019-05-20T07:18:38.733Z,86.65
2019-05-20T07:21:07.964Z,87.18
2019-05-20T07:23:36.820Z,87.15
2019-05-20T07:26:05.814Z,86.13
2019-05-20T07:28:34.710Z,87.06
2019-05-20T07:31:03.511Z,86.54
2019-05-20T07:33:32.388Z,87.29
2019-05-20T07:36:01.284Z,86.41
2019-05-20T07:38:30.175Z,86.43
2019-05-20T07:40:58.961Z,86.91
2019-05-20T07:43:27.853Z,86.44
2019-05-20T07:45:57.355Z,86.02
2019-05-20T07:48:26.881Z,86.15
2019-05-20T07:50:56.915Z,86.32
2019-05-20T07:53:26.182Z,86.34
2019-05-20T07:56:03.675Z,86.50
2019-05-20T07:58:35.023Z,86.17
2019-05-20T08:01:04.222Z,85.64
2019-05-20T08:03:33.114Z,85.52
2019-05-20T08:06:01.999Z,85.35
2019-05-20T08:08:30.891Z,85.94
2019-05-20T08:10:59.782Z,85.57
2019-05-20T08:13:28.674Z,85.96
2019-05-20T08:15:57.564Z,85.87
2019-05-20T08:18:26.455Z,86.06
2019-05-20T08:20:55.383Z,86.04
2019-05-20T08:23:24.347Z,85.41
2019-05-20T08:25:53.231Z,84.96
2019-05-20T08:28:23.563Z,85.13
2019-05-20T08:30:52.467Z,83.75
2019-05-20T08:33:21.444Z,83.59
2019-05-20T08:35:50.333Z,84.66
2019-05-20T08:38:19.224Z,83.80
2019-05-20T08:40:48.868Z,84.33
2019-05-20T08:43:19.365Z,83.99
2019-05-20T08:45:48.255Z,83.81
2019-05-20T08:48:17.157Z,83.81
2019-05-20T08:50:46.138Z,83.05
2019-05-20T08:53:15.039Z,82.93
2019-05-20T08:55:43.954Z,82.97
2019-05-20T08:58:13.044Z,83.12
2019-05-20T09:00:41.910Z,82.86
2019-05-20T09:03:11.546Z,82.06
2019-05-20T09:05:40.417Z,81.83
2019-05-20T09:08:10.218Z,82.26
2019-05-20T09:10:39.762Z,82.22
2019-05-20T09:13:09.536Z,81.25
2019-05-20T09:15:38.430Z,81.21
2019-05-20T09:18:07.721Z,80.74
2019-05-20T09:20:37.651Z,80.75
2019-05-20T09:23:06.538Z,81.56
2019-05-20T09:25:35.579Z,81.01
2019-05-20T09:28:04.525Z,81.50
2019-05-20T09:30:33.550Z,81.50
2019-05-20T09:33:02.777Z,79.88
2019-05-20T09:35:31.831Z,81.22
2019-05-20T09:38:00.819Z,81.41
2019-05-20T09:40:44.732Z,80.81
2019-05-20T09:43:13.651Z,80.96
2019-05-20T09:45:42.681Z,81.68
2019-05-20T09:48:13.316Z,82.12
2019-05-20T09:50:42.258Z,82.13
2019-05-20T09:53:11.565Z,80.55
2019-05-20T09:55:40.563Z,80.70
2019-05-20T09:58:10.265Z,81.78
2019-05-20T10:00:39.460Z,80.96
2019-05-20T10:03:08.865Z,80.60
2019-05-20T10:05:38.079Z,80.85
2019-05-20T10:08:08.154Z,78.89
2019-05-20T10:10:37.087Z,80.75
2019-05-20T10:13:06.897Z,80.11
2019-05-20T10:15:36.291Z,80.85
2019-05-20T10:18:05.286Z,81.16
2019-05-20T10:20:34.181Z,79.83
2019-05-20T10:23:03.071Z,79.57
2019-05-20T10:25:31.964Z,77.94
2019-05-20T10:28:00.847Z,78.06
2019-05-20T10:30:29.742Z,79.02
2019-05-20T10:32:58.637Z,78.28
2019-05-20T10:35:27.520Z,75.89
2019-05-20T10:37:56.534Z,78.11
2019-05-20T10:40:25.418Z,77.66
2019-05-20T10:42:54.302Z,80.69
2019-05-20T10:45:23.188Z,82.21
2019-05-20T10:47:52.189Z,78.53
2019-05-20T10:50:21.487Z,77.49
2019-05-20T10:52:50.377Z,79.19
2019-05-20T10:55:19.468Z,78.56
2019-05-20T10:57:48.367Z,77.90
2019-05-20T11:00:19.181Z,78.34
2019-05-20T11:02:48.607Z,77.01
2019-05-20T11:05:19.082Z,76.81
2019-05-20T11:07:48.024Z,76.21
2019-05-20T11:10:18.250Z,77.30
2019-05-20T11:12:47.239Z,78.07
2019-05-20T11:15:16.428Z,77.90
2019-05-20T11:17:45.224Z,76.85
2019-05-20T11:20:14.633Z,76.68
2019-05-20T11:22:43.622Z,77.17
2019-05-20T11:25:13.946Z,75.90
2019-05-20T11:27:42.838Z,77.01
2019-05-20T11:30:13.063Z,76.79
2019-05-20T11:32:41.952Z,76.38
2019-05-20T11:35:11.865Z,75.89
2019-05-20T11:37:40.658Z,76.60
2019-05-20T11:40:13.585Z,77.42
2019-05-20T11:42:43.047Z,76.25
2019-05-20T11:45:12.845Z,77.61
2019-05-20T11:47:41.848Z,77.61
2019-05-20T11:50:11.432Z,78.09
2019-05-20T11:52:40.354Z,77.75
2019-05-20T11:55:10.187Z,77.54
2019-05-20T11:57:39.361Z,77.27
2019-05-20T12:00:09.962Z,78.56
2019-05-20T12:02:38.890Z,77.30
2019-05-20T12:05:09.196Z,77.61
2019-05-20T12:07:38.105Z,77.32
2019-05-20T12:10:10.614Z,78.51
2019-05-20T12:12:39.471Z,78.39
2019-05-20T12:15:09.768Z,77.34
2019-05-20T12:17:38.601Z,77.00
2019-05-20T12:20:12.413Z,77.19
2019-05-20T12:22:40.797Z,78.35
2019-05-20T12:25:10.887Z,78.12
2019-05-20T12:27:39.777Z,78.17
2019-05-20T12:30:09.795Z,78.70
2019-05-20T12:32:38.700Z,79.21
2019-05-20T12:35:09.183Z,78.09
2019-05-20T12:37:38.137Z,79.58
2019-05-20T12:40:08.650Z,78.83
2019-05-20T12:42:38.249Z,79.25
2019-05-20T12:45:11.280Z,79.34
2019-05-20T12:47:40.398Z,79.17
2019-05-20T12:50:10.553Z,79.77
2019-05-20T12:52:39.905Z,80.72
2019-05-20T12:55:10.800Z,81.29
2019-05-20T12:57:39.682Z,82.54
2019-05-20T13:00:12.017Z,84.75
2019-05-20T13:02:42.380Z,85.55
2019-05-20T13:05:12.371Z,86.22
2019-05-20T13:07:41.295Z,84.93
2019-05-20T13:10:27.859Z,85.30
2019-05-20T13:12:43.377Z,85.02
2019-05-20T13:15:13.186Z,85.71
2019-05-20T13:17:44.779Z,85.49
2019-05-20T13:20:14.180Z,85.46
2019-05-20T13:22:43.036Z,85.24
2019-05-20T13:25:13.405Z,85.59
2019-05-20T13:27:42.247Z,85.49
2019-05-20T13:30:12.473Z,86.79
2019-05-20T13:32:41.362Z,86.81
2019-05-20T13:35:11.789Z,86.55
2019-05-20T13:37:42.829Z,86.63
2019-05-20T13:40:12.338Z,87.18
2019-05-20T13:42:41.330Z,86.90
2019-05-20T13:45:11.065Z,87.05
2019-05-20T13:47:39.932Z,86.44
2019-05-20T13:50:10.124Z,85.47
2019-05-20T13:52:39.044Z,86.55
2019-05-20T13:55:09.280Z,86.24
2019-05-20T13:57:38.568Z,86.31
2019-05-20T14:00:08.976Z,85.88
2019-05-20T14:02:37.931Z,86.31
2019-05-20T14:05:07.168Z,86.54
2019-05-20T14:07:36.081Z,87.02
2019-05-20T14:10:06.876Z,87.75
2019-05-20T14:12:35.809Z,88.13
2019-05-20T14:15:05.902Z,88.59
2019-05-20T14:17:34.719Z,88.02
2019-05-20T14:20:03.902Z,87.16
2019-05-20T14:22:32.904Z,88.13
2019-05-20T14:25:01.800Z,88.69
2019-05-20T14:27:30.689Z,88.64
2019-05-20T14:29:59.580Z,88.83
2019-05-20T14:32:28.499Z,88.07
2019-05-20T14:34:57.413Z,88.06
2019-05-20T14:37:26.254Z,89.02
2019-05-20T14:39:55.143Z,89.21
2019-05-20T14:42:25.536Z,89.09
2019-05-20T14:44:54.693Z,87.88
2019-05-20T14:47:23.558Z,87.99
2019-05-20T14:49:52.553Z,87.68
2019-05-20T14:52:21.443Z,87.63
2019-05-20T14:54:50.439Z,87.97
2019-05-20T14:57:19.329Z,87.37
2019-05-20T14:59:48.221Z,87.64
2019-05-20T15:02:17.110Z,87.23
2019-05-20T15:04:46.002Z,87.51
2019-05-20T15:07:29.092Z,88.64
2019-05-20T15:09:45.427Z,87.77
2019-05-20T15:12:14.312Z,88.21
2019-05-20T15:14:43.204Z,87.77
2019-05-20T15:17:12.298Z,88.96
2019-05-20T15:19:41.195Z,88.75
2019-05-20T15:22:12.149Z,88.15
2019-05-20T15:24:41.020Z,89.07
2019-05-20T15:27:11.050Z,88.42
2019-05-20T15:29:39.930Z,88.31
2019-05-20T15:32:09.535Z,88.30
2019-05-20T15:34:38.430Z,87.76
2019-05-20T15:37:07.420Z,87.04
2019-05-20T15:39:36.313Z,87.65
2019-05-20T15:42:05.278Z,88.43
2019-05-20T15:44:34.299Z,88.70
2019-05-20T15:47:03.193Z,88.87
2019-05-20T15:49:32.085Z,88.48
2019-05-20T15:52:00.979Z,89.12
2019-05-20T15:54:29.868Z,89.08
2019-05-20T15:56:59.048Z,88.59
2019-05-20T15:59:43.176Z,88.65
2019-05-20T16:01:58.806Z,87.09
2019-05-20T16:04:27.683Z,88.46
2019-05-20T16:07:00.170Z,86.65
2019-05-20T16:09:27.408Z,85.50
2019-05-20T16:11:56.311Z,87.91
2019-05-20T16:14:25.212Z,87.60
2019-05-20T16:16:54.086Z,86.70
2019-05-20T16:19:22.974Z,87.17
2019-05-20T16:21:51.867Z,85.80
2019-05-20T16:24:22.741Z,86.34
2019-05-20T16:26:52.719Z,85.63
2019-05-20T16:29:21.614Z,86.25
2019-05-20T16:31:50.510Z,86.02
2019-05-20T16:34:19.396Z,86.41
2019-05-20T16:36:49.517Z,86.09
2019-05-20T16:39:18.406Z,85.47
2019-05-20T16:41:47.399Z,87.12
2019-05-20T16:44:16.288Z,86.31
2019-05-20T16:46:45.180Z,86.56
2019-05-20T16:49:14.100Z,86.40
2019-05-20T16:51:42.983Z,87.88
2019-05-20T16:54:11.880Z,88.12
2019-05-20T16:56:42.282Z,87.78
2019-05-20T16:59:12.302Z,87.71
2019-05-20T17:01:46.425Z,88.56
2019-05-20T17:04:13.713Z,88.04
2019-05-20T17:06:42.659Z,87.37
2019-05-20T17:09:12.272Z,87.88
2019-05-20T17:11:41.082Z,87.25
2019-05-20T17:14:10.959Z,86.67
2019-05-20T17:16:39.764Z,86.93
2019-05-20T17:19:09.069Z,87.56
2019-05-20T17:21:37.955Z,87.42
2019-05-20T17:24:07.868Z,87.27
2019-05-20T17:26:36.759Z,86.43
2019-05-20T17:29:05.651Z,85.31
2019-05-20T17:31:34.544Z,86.15
2019-05-20T17:34:03.451Z,87.17
2019-05-20T17:36:32.325Z,86.45
2019-05-20T17:39:01.317Z,86.15
2019-05-20T17:41:30.322Z,85.83
2019-05-20T17:43:59.203Z,86.46
2019-05-20T17:46:28.092Z,85.83
2019-05-20T17:48:57.010Z,84.99
2019-05-20T17:51:25.904Z,85.61
2019-05-20T17:53:54.764Z,84.22
2019-05-20T17:56:25.093Z,84.37
2019-05-20T17:58:53.984Z,84.50
2019-05-20T18:01:22.974Z,84.90
2019-05-20T18:03:51.874Z,83.94
2019-05-20T18:06:20.662Z,84.04
2019-05-20T18:08:51.065Z,84.41
2019-05-20T18:11:19.979Z,85.95
2019-05-20T18:13:48.865Z,86.51
2019-05-20T18:16:17.760Z,86.62
2019-05-20T18:18:46.662Z,86.32
2019-05-20T18:21:15.538Z,85.20
2019-05-20T18:23:44.431Z,86.97
2019-05-20T18:26:13.327Z,86.15
2019-05-20T18:28:42.258Z,86.69
2019-05-20T18:31:11.631Z,85.57
2019-05-20T18:33:40.530Z,86.33
2019-05-20T18:36:10.112Z,87.01
2019-05-20T18:38:39.006Z,87.50
2019-05-20T18:41:08.028Z,86.67
2019-05-20T18:43:36.921Z,86.34
2019-05-20T18:46:05.979Z,85.71
2019-05-20T18:48:36.107Z,86.25
2019-05-20T18:51:05.101Z,85.93
2019-05-20T18:53:33.999Z,86.33
2019-05-20T18:56:02.891Z,86.52
2019-05-20T18:58:31.800Z,86.75
2019-05-20T19:01:00.597Z,86.87
2019-05-20T19:03:29.976Z,86.03
2019-05-20T19:05:59.161Z,86.71
2019-05-20T19:08:32.265Z,87.13
2019-05-20T19:11:01.144Z,88.13
2019-05-20T19:13:30.038Z,87.91
2019-05-20T19:16:00.523Z,86.98
2019-05-20T19:18:29.495Z,86.92
2019-05-20T19:20:58.784Z,87.21
2019-05-20T19:23:28.004Z,86.83
2019-05-20T19:25:56.850Z,86.84
2019-05-20T19:28:26.458Z,88.05
2019-05-20T19:30:55.475Z,88.35
2019-05-20T19:36:14.635Z,88.27
2019-05-20T19:38:43.631Z,88.00
2019-05-20T19:41:12.518Z,88.24
2019-05-20T19:46:20.848Z,88.27
2019-05-20T19:48:49.790Z,88.18
2019-05-20T19:51:18.629Z,88.28
2019-05-20T19:53:47.647Z,88.35
2019-05-20T19:56:16.523Z,88.60
2019-05-20T19:58:45.422Z,88.96
2019-05-20T20:01:14.315Z,88.75
2019-05-20T20:03:43.190Z,88.78
2019-05-20T20:06:12.084Z,88.71
2019-05-20T20:08:40.974Z,89.26
2019-05-20T20:11:10.796Z,89.09
2019-05-20T20:13:41.115Z,89.12
2019-05-20T20:16:11.131Z,89.13
2019-05-20T20:18:40.048Z,89.48
2019-05-20T20:21:09.111Z,88.72
2019-05-20T20:23:39.134Z,88.72
2019-05-20T20:26:10.423Z,89.20
2019-05-20T20:28:39.268Z,89.29
2019-05-20T20:31:11.060Z,88.91
2019-05-20T20:33:40.123Z,88.91
2019-05-20T20:36:09.506Z,88.92
2019-05-20T20:38:38.327Z,88.41
2019-05-20T20:41:07.616Z,88.58
2019-05-20T20:43:36.506Z,89.11
2019-05-20T20:46:06.022Z,89.02
2019-05-20T20:48:34.911Z,89.15
2019-05-20T20:51:04.058Z,89.29
2019-05-20T20:53:32.898Z,88.48
2019-05-20T20:56:01.883Z,90.54
2019-05-20T20:58:30.800Z,90.36
2019-05-20T21:00:59.668Z,89.74
2019-05-20T21:03:28.558Z,90.82
2019-05-20T21:05:57.450Z,89.37
2019-05-20T21:08:26.341Z,89.23
2019-05-20T21:10:55.233Z,90.05
2019-05-20T21:13:24.126Z,88.44
2019-05-20T21:15:53.020Z,88.47
2019-05-20T21:18:21.905Z,88.61
2019-05-20T21:20:50.798Z,88.49
2019-05-20T21:23:20.200Z,87.81
2019-05-20T21:25:49.103Z,88.11
2019-05-20T21:28:17.981Z,88.34
2019-05-20T21:30:46.871Z,87.23
2019-05-20T21:33:15.765Z,87.42
2019-05-20T21:35:45.522Z,88.19
2019-05-20T21:38:14.676Z,87.82
2019-05-20T21:40:45.005Z,87.31
2019-05-20T21:43:13.890Z,88.24
2019-05-20T21:45:42.779Z,87.88
2019-05-20T21:48:12.595Z,90.14
2019-05-20T21:50:41.483Z,90.54
2019-05-20T21:53:10.784Z,90.32
2019-05-20T21:55:39.794Z,89.83
2019-05-20T21:58:09.901Z,88.50
2019-05-20T22:00:55.071Z,88.58
2019-05-20T22:03:25.345Z,89.00
2019-05-20T22:05:54.493Z,89.68
2019-05-20T22:08:23.489Z,90.10
2019-05-20T22:10:52.487Z,89.84
2019-05-20T22:13:21.372Z,89.43
2019-05-20T22:15:50.425Z,89.23
2019-05-20T22:18:19.257Z,89.10
2019-05-20T22:20:48.146Z,89.19
2019-05-20T22:23:30.453Z,90.93
2019-05-20T22:25:59.341Z,89.54
2019-05-20T22:28:28.340Z,89.50
2019-05-20T22:30:57.227Z,90.45
2019-05-20T22:33:40.168Z,89.05
2019-05-20T22:35:56.649Z,89.07
2019-05-20T22:38:25.565Z,88.55
2019-05-20T22:40:54.430Z,88.98
2019-05-20T22:43:23.323Z,89.58
2019-05-20T22:45:52.759Z,88.95
2019-05-20T22:48:22.090Z,89.20
2019-05-20T22:50:51.019Z,89.18
2019-05-20T22:53:19.915Z,89.16
2019-05-20T22:55:48.801Z,88.37
2019-05-20T22:58:17.798Z,89.03
2019-05-20T23:00:46.688Z,89.08
2019-05-20T23:03:15.644Z,90.11
2019-05-20T23:05:44.775Z,90.47
2019-05-20T23:08:13.666Z,90.28
2019-05-20T23:10:43.992Z,90.22
2019-05-20T23:13:12.882Z,89.93
2019-05-20T23:15:41.778Z,89.57
2019-05-20T23:18:12.611Z,89.68
2019-05-20T23:20:41.502Z,89.23
2019-05-20T23:23:10.801Z,89.99
2019-05-20T23:25:39.704Z,89.60
2019-05-20T23:28:09.591Z,89.27
2019-05-20T23:30:38.501Z,88.76
2019-05-20T23:33:07.598Z,88.90
2019-05-20T23:35:36.490Z,88.73
2019-05-20T23:38:05.378Z,89.11
2019-05-20T23:40:34.274Z,88.62
2019-05-20T23:43:03.344Z,88.27
2019-05-20T23:45:32.260Z,88.21
2019-05-20T23:48:01.454Z,88.10
2019-05-20T23:50:30.351Z,88.03
2019-05-20T23:52:59.237Z,88.36
2019-05-20T23:55:28.138Z,89.14
2019-05-20T23:57:57.022Z,88.69
